createdAt,value
2023-02-16T00:00:22.875Z,101361.19
2023-02-16T00:02:49.624Z,101355.13
2023-02-16T00:05:25.813Z,101358.50
2023-02-16T00:07:53.600Z,101359.38
2023-02-16T00:10:21.152Z,101362.84
2023-02-16T00:13:06.765Z,101368.97
2023-02-16T00:15:33.303Z,101360.16
2023-02-16T00:18:02.777Z,101362.75
2023-02-16T00:20:32.452Z,101362.69
2023-02-16T00:22:59.304Z,101357.34
2023-02-16T00:25:25.771Z,101367.81
2023-02-16T00:27:52.933Z,101373.91
2023-02-16T00:30:21.755Z,101373.00
2023-02-16T00:32:50.413Z,101371.13
2023-02-16T00:35:22.277Z,101364.00
2023-02-16T00:37:49.298Z,101365.66
2023-02-16T00:40:18.134Z,101365.50
2023-02-16T00:42:47.377Z,101364.44
2023-02-16T00:45:17.526Z,101361.75
2023-02-16T00:47:46.862Z,101361.56
2023-02-16T00:50:24.439Z,101365.84
2023-02-16T00:52:51.292Z,101371.00
2023-02-16T00:55:21.181Z,101371.75
2023-02-16T00:57:50.208Z,101369.03
2023-02-16T01:00:27.185Z,101362.75
2023-02-16T01:02:57.390Z,101369.66
2023-02-16T01:05:24.472Z,101363.50
2023-02-16T01:08:09.607Z,101356.38
2023-02-16T01:10:56.335Z,101362.44
2023-02-16T01:13:24.502Z,101364.09
2023-02-16T01:15:53.461Z,101355.25
2023-02-16T01:18:20.925Z,101350.94
2023-02-16T01:20:50.698Z,101356.88
2023-02-16T01:23:17.820Z,101347.25
2023-02-16T01:25:44.505Z,101341.91
2023-02-16T01:28:23.737Z,101342.81
2023-02-16T01:30:52.533Z,101334.81
2023-02-16T01:33:20.234Z,101337.44
2023-02-16T01:35:46.868Z,101333.00
2023-02-16T01:38:25.166Z,101317.31
2023-02-16T01:41:08.042Z,101312.06
2023-02-16T01:43:49.289Z,101318.16
2023-02-16T01:46:31.770Z,101329.53
2023-02-16T01:48:59.871Z,101324.28
2023-02-16T01:51:37.685Z,101319.94
2023-02-16T01:54:23.153Z,101319.06
2023-02-16T01:56:56.639Z,101317.25
2023-02-16T01:59:40.251Z,101311.28
2023-02-16T02:02:41.083Z,101295.50
2023-02-16T02:05:36.659Z,101304.22
2023-02-16T02:08:17.315Z,101304.22
2023-02-16T02:10:54.526Z,101304.09
2023-02-16T02:13:47.421Z,101303.94
2023-02-16T02:16:20.281Z,101307.19
2023-02-16T02:18:50.744Z,101303.59
2023-02-16T02:22:01.527Z,101302.63
2023-02-16T02:25:03.589Z,101306.97
2023-02-16T02:27:40.922Z,101310.41
2023-02-16T02:30:46.220Z,101311.13
2023-02-16T02:33:32.259Z,101303.22
2023-02-16T02:36:06.289Z,101302.34
2023-02-16T02:38:38.868Z,101293.56
2023-02-16T02:41:18.226Z,101297.91
2023-02-16T02:43:57.482Z,101295.22
2023-02-16T02:46:35.379Z,101294.31
2023-02-16T02:49:03.816Z,101289.81
2023-02-16T02:51:30.573Z,101287.94
2023-02-16T02:54:32.106Z,101279.94
2023-02-16T02:57:49.399Z,101286.63
2023-02-16T03:00:40.077Z,101291.78
2023-02-16T03:03:32.490Z,101288.09
2023-02-16T03:06:31.023Z,101294.81
2023-02-16T03:09:05.212Z,101293.69
2023-02-16T03:11:50.299Z,101291.97
2023-02-16T03:14:20.393Z,101289.25
2023-02-16T03:17:09.857Z,101291.78
2023-02-16T03:19:56.698Z,101289.09
2023-02-16T03:22:42.379Z,101288.03
2023-02-16T03:25:27.594Z,101277.50
2023-02-16T03:28:15.363Z,101284.38
2023-02-16T03:30:43.530Z,101284.22
2023-02-16T03:33:10.480Z,101281.41
2023-02-16T03:35:37.201Z,101277.81
2023-02-16T03:38:04.109Z,101281.91
2023-02-16T03:40:34.842Z,101284.34
2023-02-16T03:43:04.799Z,101285.06
2023-02-16T03:45:35.488Z,101282.38
2023-02-16T03:48:02.303Z,101288.34
2023-02-16T03:50:29.294Z,101290.88
2023-02-16T03:53:09.597Z,101281.16
2023-02-16T03:55:39.929Z,101288.94
2023-02-16T03:58:08.600Z,101288.03
2023-02-16T04:00:36.443Z,101291.44
2023-02-16T04:03:05.075Z,101282.72
2023-02-16T04:05:32.057Z,101274.69
2023-02-16T04:08:00.017Z,101284.25
2023-02-16T04:10:27.422Z,101280.59
2023-02-16T04:12:54.245Z,101277.78
2023-02-16T04:15:23.057Z,101267.97
2023-02-16T04:17:50.321Z,101279.09
2023-02-16T04:20:20.285Z,101277.19
2023-02-16T04:22:48.012Z,101277.91
2023-02-16T04:25:15.505Z,101283.13
2023-02-16T04:27:43.580Z,101282.19
2023-02-16T04:30:17.558Z,101280.38
2023-02-16T04:32:44.577Z,101273.34
2023-02-16T04:35:11.263Z,101273.34
2023-02-16T04:37:40.948Z,101264.53
2023-02-16T04:40:08.734Z,101272.38
2023-02-16T04:42:35.369Z,101278.50
2023-02-16T04:45:01.868Z,101273.34
2023-02-16T04:47:28.686Z,101279.47
2023-02-16T04:49:55.512Z,101282.00
2023-02-16T04:52:22.054Z,101270.56
2023-02-16T04:54:48.754Z,101269.56
2023-02-16T04:57:15.887Z,101268.69
2023-02-16T04:59:43.529Z,101264.19
2023-02-16T05:02:10.298Z,101274.63
2023-02-16T05:04:36.816Z,101268.41
2023-02-16T05:07:03.487Z,101265.88
2023-02-16T05:09:29.944Z,101262.41
2023-02-16T05:12:15.223Z,101253.59
2023-02-16T05:14:42.206Z,101256.34
2023-02-16T05:17:21.538Z,101264.19
2023-02-16T05:19:51.621Z,101256.44
2023-02-16T05:22:18.940Z,101259.97
2023-02-16T05:24:45.547Z,101256.44
2023-02-16T05:27:18.268Z,101259.88
2023-02-16T05:29:46.022Z,101259.13
2023-02-16T05:32:13.843Z,101262.72
2023-02-16T05:34:42.953Z,101253.81
2023-02-16T05:37:09.557Z,101257.34
2023-02-16T05:39:36.061Z,101252.13
2023-02-16T05:42:03.870Z,101260.88
2023-02-16T05:44:30.391Z,101264.25
2023-02-16T05:46:56.917Z,101259.03
2023-02-16T05:49:23.436Z,101257.34
2023-02-16T05:51:50.128Z,101259.03
2023-02-16T05:54:21.789Z,101256.44
2023-02-16T05:56:50.658Z,101257.25
2023-02-16T05:59:17.802Z,101258.06
2023-02-16T06:01:51.550Z,101269.41
2023-02-16T06:04:20.854Z,101265.88
2023-02-16T06:06:48.022Z,101268.63
2023-02-16T06:09:15.230Z,101273.91
2023-02-16T06:11:44.676Z,101273.91
2023-02-16T06:14:17.318Z,101270.41
2023-02-16T06:16:47.233Z,101278.22
2023-02-16T06:19:15.674Z,101277.41
2023-02-16T06:21:42.839Z,101279.22
2023-02-16T06:24:11.327Z,101274.78
2023-02-16T06:26:38.203Z,101274.00
2023-02-16T06:29:06.624Z,101278.38
2023-02-16T06:31:36.214Z,101265.44
2023-02-16T06:34:04.494Z,101270.75
2023-02-16T06:36:31.371Z,101270.00
2023-02-16T06:38:57.891Z,101270.28
2023-02-16T06:41:40.179Z,101267.91
2023-02-16T06:44:09.707Z,101263.78
2023-02-16T06:46:36.390Z,101277.63
2023-02-16T06:49:03.379Z,101269.69
2023-02-16T06:51:30.309Z,101266.31
2023-02-16T06:53:56.814Z,101279.25
2023-02-16T06:56:23.872Z,101284.50
2023-02-16T06:58:51.884Z,101275.66
2023-02-16T07:01:22.983Z,101278.81
2023-02-16T07:03:50.976Z,101281.97
2023-02-16T07:06:17.893Z,101278.06
2023-02-16T07:08:44.422Z,101280.38
2023-02-16T07:11:11.582Z,101283.69
2023-02-16T07:13:39.525Z,101279.91
2023-02-16T07:16:08.155Z,101282.38
2023-02-16T07:18:34.716Z,101278.72
2023-02-16T07:21:01.654Z,101280.38
2023-02-16T07:23:28.552Z,101286.38
2023-02-16T07:25:55.116Z,101279.38
2023-02-16T07:28:21.663Z,101277.69
2023-02-16T07:30:48.558Z,101282.91
2023-02-16T07:33:15.845Z,101272.44
2023-02-16T07:35:42.606Z,101281.13
2023-02-16T07:38:09.765Z,101281.13
2023-02-16T07:40:36.664Z,101275.06
2023-02-16T07:43:05.399Z,101279.38
2023-02-16T07:45:34.969Z,101276.78
2023-02-16T07:48:02.614Z,101277.69
2023-02-16T07:50:29.136Z,101279.78
2023-02-16T07:52:55.751Z,101285.78
2023-02-16T07:55:22.278Z,101282.91
2023-02-16T07:57:54.585Z,101286.16
2023-02-16T08:00:23.044Z,101289.81
2023-02-16T08:02:50.156Z,101281.19
2023-02-16T08:05:17.112Z,101291.75
2023-02-16T08:07:45.680Z,101285.75
2023-02-16T08:10:13.655Z,101286.72
2023-02-16T08:12:40.348Z,101280.81
2023-02-16T08:15:07.531Z,101285.38
2023-02-16T08:17:35.288Z,101289.91
2023-02-16T08:20:02.488Z,101286.78
2023-02-16T08:22:29.253Z,101288.69
2023-02-16T08:24:55.732Z,101287.13
2023-02-16T08:27:22.275Z,101287.34
2023-02-16T08:29:49.181Z,101277.00
2023-02-16T08:32:16.054Z,101285.09
2023-02-16T08:34:43.531Z,101276.63
2023-02-16T08:37:12.638Z,101275.09
2023-02-16T08:39:40.538Z,101284.06
2023-02-16T08:42:07.083Z,101290.41
2023-02-16T08:44:33.720Z,101281.84
2023-02-16T08:47:01.080Z,101298.63
2023-02-16T08:49:28.271Z,101292.63
2023-02-16T08:51:57.686Z,101293.72
2023-02-16T08:54:30.434Z,101287.63
2023-02-16T08:56:58.948Z,101279.09
2023-02-16T08:59:28.906Z,101280.06
2023-02-16T09:01:57.002Z,101276.75
2023-02-16T09:04:24.565Z,101280.34
2023-02-16T09:06:52.725Z,101281.44
2023-02-16T09:09:19.869Z,101283.31
2023-02-16T09:11:47.232Z,101280.75
2023-02-16T09:14:14.563Z,101286.13
2023-02-16T09:16:45.666Z,101277.50
2023-02-16T09:19:15.144Z,101284.59
2023-02-16T09:21:42.458Z,101290.91
2023-02-16T09:24:09.452Z,101275.31
2023-02-16T09:26:38.908Z,101276.41
2023-02-16T09:29:06.110Z,101268.84
2023-02-16T09:31:34.994Z,101283.13
2023-02-16T09:34:02.822Z,101276.31
2023-02-16T09:36:30.171Z,101281.09
2023-02-16T09:38:57.441Z,101286.59
2023-02-16T09:41:38.918Z,101281.97
2023-02-16T09:44:29.746Z,101280.91
2023-02-16T09:46:58.700Z,101268.50
2023-02-16T09:49:34.959Z,101269.28
2023-02-16T09:53:03.529Z,101269.00
2023-02-16T09:55:41.808Z,101262.81
2023-02-16T09:58:42.265Z,101264.63
2023-02-16T10:01:23.771Z,101269.75
2023-02-16T10:04:05.719Z,101265.72
2023-02-16T10:06:52.568Z,101262.72
2023-02-16T10:09:20.475Z,101259.44
2023-02-16T10:11:56.404Z,101261.50
2023-02-16T10:14:41.999Z,101263.69
2023-02-16T10:17:41.949Z,101258.84
2023-02-16T10:20:18.199Z,101263.75
2023-02-16T10:23:08.098Z,101264.16
2023-02-16T10:25:44.366Z,101277.88
2023-02-16T10:28:45.602Z,101278.50
2023-02-16T10:31:29.304Z,101279.84
2023-02-16T10:34:09.882Z,101278.63
2023-02-16T10:36:55.230Z,101275.41
2023-02-16T10:39:40.776Z,101277.34
2023-02-16T10:42:26.059Z,101264.41
2023-02-16T10:45:05.944Z,101269.97
2023-02-16T10:47:38.709Z,101282.47
2023-02-16T10:50:07.971Z,101275.69
2023-02-16T10:52:39.545Z,101281.25
2023-02-16T10:55:06.922Z,101270.78
2023-02-16T10:57:33.713Z,101282.16
2023-02-16T11:00:10.001Z,101279.25
2023-02-16T11:02:48.131Z,101275.31
2023-02-16T11:05:38.504Z,101287.41
2023-02-16T11:08:07.667Z,101274.88
2023-02-16T11:10:48.987Z,101273.88
2023-02-16T11:13:28.970Z,101263.34
2023-02-16T11:16:00.184Z,101261.56
2023-02-16T11:18:33.146Z,101257.16
2023-02-16T11:21:00.106Z,101249.28
2023-02-16T11:23:32.266Z,101253.84
2023-02-16T11:26:22.426Z,101246.94
2023-02-16T11:28:50.376Z,101241.75
2023-02-16T11:31:39.505Z,101247.91
2023-02-16T11:34:12.484Z,101236.38
2023-02-16T11:36:45.194Z,101231.06
2023-02-16T11:39:19.046Z,101235.41
2023-02-16T11:41:53.923Z,101238.19
2023-02-16T11:44:31.476Z,101248.75
2023-02-16T11:47:00.794Z,101252.19
2023-02-16T11:49:37.634Z,101244.50
2023-02-16T11:52:29.598Z,101246.50
2023-02-16T11:54:59.000Z,101254.50
2023-02-16T11:57:31.882Z,101245.66
2023-02-16T12:00:02.027Z,101240.31
2023-02-16T12:03:09.660Z,101247.44
2023-02-16T12:05:50.537Z,101252.97
2023-02-16T12:08:43.446Z,101243.44
2023-02-16T12:11:28.241Z,101242.75
2023-02-16T12:14:02.941Z,101245.19
2023-02-16T12:16:39.688Z,101239.84
2023-02-16T12:19:24.741Z,101237.13
2023-02-16T12:22:01.550Z,101236.09
2023-02-16T12:24:46.983Z,101232.31
2023-02-16T12:27:33.430Z,101225.19
2023-02-16T12:30:21.766Z,101231.34
2023-02-16T12:32:58.228Z,101229.75
2023-02-16T12:35:53.111Z,101242.25
2023-02-16T12:38:59.355Z,101235.88
2023-02-16T12:41:38.001Z,101233.03
2023-02-16T12:44:14.172Z,101232.66
2023-02-16T12:46:47.889Z,101234.69
2023-02-16T12:49:34.597Z,101230.53
2023-02-16T12:52:10.995Z,101233.31
2023-02-16T12:54:53.430Z,101230.75
2023-02-16T12:57:23.719Z,101228.28
2023-02-16T13:00:04.044Z,101227.47
2023-02-16T13:02:43.419Z,101223.88
2023-02-16T13:05:29.868Z,101216.72
2023-02-16T13:08:39.066Z,101218.47
2023-02-16T13:11:08.772Z,101216.88
2023-02-16T13:13:36.569Z,101217.00
2023-02-16T13:16:30.590Z,101217.91
2023-02-16T13:18:57.965Z,101221.41
2023-02-16T13:21:51.385Z,101203.06
2023-02-16T13:24:46.171Z,101205.94
2023-02-16T13:27:22.615Z,101199.72
2023-02-16T13:29:56.011Z,101208.16
2023-02-16T13:32:33.776Z,101196.56
2023-02-16T13:35:19.665Z,101190.59
2023-02-16T13:38:24.087Z,101174.66
2023-02-16T13:41:20.649Z,101178.31
2023-02-16T13:43:57.001Z,101176.66
2023-02-16T13:46:29.651Z,101175.84
2023-02-16T13:48:57.610Z,101165.28
2023-02-16T13:51:27.976Z,101173.97
2023-02-16T13:53:56.987Z,101167.72
2023-02-16T13:56:36.700Z,101168.66
2023-02-16T13:59:38.221Z,101169.78
2023-02-16T14:02:11.798Z,101150.53
2023-02-16T14:04:38.679Z,101162.03
2023-02-16T14:07:06.973Z,101157.50
2023-02-16T14:09:47.724Z,101155.66
2023-02-16T14:12:31.883Z,101149.44
2023-02-16T14:15:04.212Z,101151.13
2023-02-16T14:17:34.071Z,101159.66
2023-02-16T14:20:14.957Z,101160.03
2023-02-16T14:22:48.270Z,101159.78
2023-02-16T14:25:23.873Z,101149.06
2023-02-16T14:27:57.828Z,101155.94
2023-02-16T14:30:49.984Z,101147.13
2023-02-16T14:33:22.408Z,101144.63
2023-02-16T14:35:58.288Z,101140.31
2023-02-16T14:38:29.275Z,101142.03
2023-02-16T14:40:57.838Z,101139.34
2023-02-16T14:43:46.711Z,101137.59
2023-02-16T14:46:31.409Z,101138.41
2023-02-16T14:49:33.970Z,101129.59
2023-02-16T14:52:13.777Z,101126.97
2023-02-16T14:54:43.056Z,101122.59
2023-02-16T14:57:17.836Z,101121.88
2023-02-16T14:59:48.888Z,101119.31
2023-02-16T15:02:26.142Z,101111.38
2023-02-16T15:04:52.783Z,101116.59
2023-02-16T15:07:19.976Z,101114.66
2023-02-16T15:09:57.156Z,101108.41
2023-02-16T15:12:39.067Z,101119.72
2023-02-16T15:15:10.254Z,101116.91
2023-02-16T15:17:44.953Z,101108.00
2023-02-16T15:20:43.927Z,101117.59
2023-02-16T15:23:21.412Z,101117.44
2023-02-16T15:26:07.342Z,101112.91
2023-02-16T15:28:36.624Z,101111.16
2023-02-16T15:31:10.928Z,101112.84
2023-02-16T15:33:41.113Z,101112.84
2023-02-16T15:36:14.189Z,101118.16
2023-02-16T15:38:43.337Z,101110.25
2023-02-16T15:41:15.519Z,101118.19
2023-02-16T15:43:47.560Z,101105.84
2023-02-16T15:46:24.299Z,101105.84
2023-02-16T15:48:50.956Z,101095.09
2023-02-16T15:51:33.646Z,101088.94
2023-02-16T15:54:30.641Z,101089.81
2023-02-16T15:56:59.714Z,101092.59
2023-02-16T15:59:35.872Z,101081.06
2023-02-16T16:02:18.553Z,101095.97
2023-02-16T16:04:54.923Z,101096.75
2023-02-16T16:07:31.911Z,101090.50
2023-02-16T16:10:00.278Z,101082.53
2023-02-16T16:12:28.276Z,101078.09
2023-02-16T16:15:00.464Z,101081.66
2023-02-16T16:17:30.736Z,101075.41
2023-02-16T16:20:17.196Z,101075.25
2023-02-16T16:22:43.699Z,101073.41
2023-02-16T16:25:30.897Z,101090.94
2023-02-16T16:27:57.953Z,101084.75
2023-02-16T16:30:24.482Z,101094.44
2023-02-16T16:33:10.196Z,101092.72
2023-02-16T16:35:50.593Z,101083.00
2023-02-16T16:38:40.109Z,101082.09
2023-02-16T16:41:06.999Z,101085.53
2023-02-16T16:43:51.156Z,101088.13
2023-02-16T16:46:21.234Z,101097.75
2023-02-16T16:48:50.377Z,101110.00
2023-02-16T16:51:18.545Z,101092.38
2023-02-16T16:53:51.931Z,101098.47
2023-02-16T16:56:19.455Z,101100.19
2023-02-16T16:58:54.629Z,101096.50
2023-02-16T17:01:21.814Z,101112.31
2023-02-16T17:03:48.417Z,101106.09
2023-02-16T17:06:17.372Z,101101.63
2023-02-16T17:08:45.216Z,101103.34
2023-02-16T17:11:23.149Z,101106.88
2023-02-16T17:13:49.887Z,101109.47
2023-02-16T17:16:20.785Z,101109.44
2023-02-16T17:18:47.289Z,101104.09
2023-02-16T17:21:14.279Z,101097.94
2023-02-16T17:23:50.367Z,101097.94
2023-02-16T17:26:19.274Z,101102.25
2023-02-16T17:28:45.885Z,101098.69
2023-02-16T17:31:12.335Z,101102.16
2023-02-16T17:33:38.809Z,101098.69
2023-02-16T17:36:10.008Z,101108.38
2023-02-16T17:38:36.419Z,101097.81
2023-02-16T17:41:03.033Z,101099.53
2023-02-16T17:43:29.486Z,101098.69
2023-02-16T17:45:56.989Z,101098.69
2023-02-16T17:48:30.266Z,101098.69
2023-02-16T17:50:58.087Z,101098.56
2023-02-16T17:53:26.069Z,101094.03
2023-02-16T17:55:55.600Z,101095.69
2023-02-16T17:58:24.633Z,101093.06
2023-02-16T18:00:51.504Z,101086.88
2023-02-16T18:03:18.873Z,101083.41
2023-02-16T18:05:45.441Z,101086.09
2023-02-16T18:08:13.281Z,101072.09
2023-02-16T18:10:48.834Z,101087.97
2023-02-16T18:13:16.484Z,101077.41
2023-02-16T18:15:47.450Z,101069.59
2023-02-16T18:18:16.422Z,101062.56
2023-02-16T18:20:43.500Z,101066.09
2023-02-16T18:23:11.526Z,101062.59
2023-02-16T18:25:39.353Z,101058.19
2023-02-16T18:28:05.835Z,101063.47
2023-02-16T18:30:32.768Z,101063.41
2023-02-16T18:32:59.376Z,101057.19
2023-02-16T18:35:26.231Z,101054.50
2023-02-16T18:37:52.818Z,101049.06
2023-02-16T18:40:20.565Z,101045.47
2023-02-16T18:42:50.089Z,101055.97
2023-02-16T18:45:16.722Z,101055.97
2023-02-16T18:47:45.165Z,101055.97
2023-02-16T18:50:13.808Z,101053.22
2023-02-16T18:52:42.473Z,101062.94
2023-02-16T18:55:09.989Z,101069.13
2023-02-16T18:57:36.427Z,101069.06
2023-02-16T19:00:05.426Z,101060.13
2023-02-16T19:02:32.342Z,101057.34
2023-02-16T19:04:58.834Z,101058.88
2023-02-16T19:07:25.326Z,101053.34
2023-02-16T19:09:51.998Z,101054.09
2023-02-16T19:12:18.665Z,101055.78
2023-02-16T19:14:45.143Z,101039.06
2023-02-16T19:17:11.706Z,101046.13
2023-02-16T19:19:38.384Z,101044.44
2023-02-16T19:22:05.077Z,101055.97
2023-02-16T19:24:31.915Z,101048.16
2023-02-16T19:26:58.405Z,101041.19
2023-02-16T19:29:25.323Z,101040.41
2023-02-16T19:31:52.255Z,101038.72
2023-02-16T19:34:18.709Z,101042.28
2023-02-16T19:36:45.328Z,101043.22
2023-02-16T19:39:14.954Z,101037.06
2023-02-16T19:41:43.630Z,101044.06
2023-02-16T19:44:14.062Z,101038.78
2023-02-16T19:46:41.170Z,101045.00
2023-02-16T19:49:07.705Z,101033.63
2023-02-16T19:51:34.425Z,101018.78
2023-02-16T19:54:02.096Z,101024.13
2023-02-16T19:56:28.672Z,101014.47
2023-02-16T19:58:58.039Z,101014.47
2023-02-16T20:01:27.240Z,101010.97
2023-02-16T20:03:54.563Z,101007.47
2023-02-16T20:06:22.639Z,101009.25
2023-02-16T20:08:50.913Z,101011.88
2023-02-16T20:11:21.083Z,101013.63
2023-02-16T20:13:48.204Z,101005.78
2023-02-16T20:16:16.155Z,101002.31
2023-02-16T20:18:42.803Z,101004.13
2023-02-16T20:21:21.523Z,101003.25
2023-02-16T20:23:49.907Z,101008.53
2023-02-16T20:26:20.568Z,100999.78
2023-02-16T20:28:48.494Z,101001.56
2023-02-16T20:31:21.845Z,100996.31
2023-02-16T20:33:49.498Z,100987.47
2023-02-16T20:36:18.196Z,100989.25
2023-02-16T20:38:44.841Z,100983.13
2023-02-16T20:41:11.927Z,100976.06
2023-02-16T20:43:38.805Z,100981.31
2023-02-16T20:46:07.734Z,100976.06
2023-02-16T20:48:35.989Z,100978.69
2023-02-16T20:51:05.353Z,100976.91
2023-02-16T20:53:33.575Z,100964.56
2023-02-16T20:56:22.199Z,100958.34
2023-02-16T20:58:50.419Z,100961.81
2023-02-16T21:01:25.069Z,100956.50
2023-02-16T21:03:53.554Z,100958.22
2023-02-16T21:06:22.660Z,100969.66
2023-02-16T21:08:49.163Z,100961.72
2023-02-16T21:11:16.083Z,100949.44
2023-02-16T21:13:42.722Z,100952.09
2023-02-16T21:16:10.145Z,100951.19
2023-02-16T21:18:40.285Z,100945.91
2023-02-16T21:21:07.434Z,100955.53
2023-02-16T21:23:33.906Z,100955.50
2023-02-16T21:26:03.745Z,100937.91
2023-02-16T21:28:30.519Z,100946.66
2023-02-16T21:31:07.598Z,100939.56
2023-02-16T21:33:34.121Z,100944.84
2023-02-16T21:36:09.683Z,100938.72
2023-02-16T21:38:36.714Z,100936.94
2023-02-16T21:41:27.522Z,100929.06
2023-02-16T21:43:58.276Z,100934.34
2023-02-16T21:46:25.608Z,100934.34
2023-02-16T21:48:52.140Z,100931.69
2023-02-16T21:51:26.881Z,100934.34
2023-02-16T21:53:54.053Z,100935.16
2023-02-16T21:56:34.858Z,100929.88
2023-02-16T21:59:05.181Z,100922.88
2023-02-16T22:01:35.967Z,100925.47
2023-02-16T22:04:03.766Z,100927.19
2023-02-16T22:06:42.509Z,100927.13
2023-02-16T22:09:11.771Z,100927.13
2023-02-16T22:11:38.759Z,100918.31
2023-02-16T22:14:05.305Z,100921.75
2023-02-16T22:16:33.678Z,100921.75
2023-02-16T22:19:03.146Z,100917.31
2023-02-16T22:21:31.015Z,100920.78
2023-02-16T22:24:00.615Z,100919.06
2023-02-16T22:26:29.752Z,100926.81
2023-02-16T22:28:56.586Z,100918.84
2023-02-16T22:31:26.967Z,100919.63
2023-02-16T22:33:59.189Z,100924.88
2023-02-16T22:36:26.554Z,100915.19
2023-02-16T22:38:54.642Z,100917.81
2023-02-16T22:41:21.773Z,100921.28
2023-02-16T22:43:52.208Z,100915.16
2023-02-16T22:46:18.824Z,100910.72
2023-02-16T22:48:45.372Z,100914.25
2023-02-16T22:51:13.681Z,100908.94
2023-02-16T22:53:40.487Z,100903.66
2023-02-16T22:56:09.801Z,100888.69
2023-02-16T22:58:37.583Z,100887.72
2023-02-16T23:01:04.564Z,100892.91
2023-02-16T23:03:31.792Z,100892.06
2023-02-16T23:05:58.310Z,100890.25
2023-02-16T23:08:24.786Z,100891.06
2023-02-16T23:11:00.260Z,100884.00
2023-02-16T23:13:28.693Z,100876.97
2023-02-16T23:15:57.027Z,100891.06
2023-02-16T23:18:24.722Z,100883.09
2023-02-16T23:20:51.249Z,100876.97
2023-02-16T23:23:17.769Z,100872.63
2023-02-16T23:25:49.459Z,100873.47
2023-02-16T23:28:16.602Z,100866.38
2023-02-16T23:30:45.287Z,100866.34
2023-02-16T23:33:13.213Z,100870.78
2023-02-16T23:35:41.752Z,100861.97
2023-02-16T23:38:12.851Z,100853.16
2023-02-16T23:40:43.170Z,100855.78
2023-02-16T23:43:10.591Z,100853.09
2023-02-16T23:45:37.504Z,100847.81
2023-02-16T23:48:04.252Z,100841.66
2023-02-16T23:50:32.285Z,100839.94
2023-02-16T23:52:58.749Z,100835.63
2023-02-16T23:55:25.565Z,100819.00
2023-02-16T23:57:52.134Z,100809.34
